aviador You're here:

KBVO Decoded Metar

BARTLESVILLE in OK, USA
Report Time2018-01-17 00:53:00
UTC Time2018-01-17 01:21:49
Flight Rules vfr VFR
WindCalm
Visibility9999 m
Phenomena:N/A
Clouds:N/A
Expected CloudBase > 1,200 ft AGL from Temp-Dew spread
CeilingNone
Temp-15°C (ISA -29)
Dew Point-18°C (78% RH)
AAT-18.5°C
QNH1043 hPa
Density Alt-3,930 ft
Elevation689 ft
Report Wrong Elevation
Raw Report
KBVO 170053Z AUTO 00000KT 10SM CLR M15/M18 A3079 RMK AO2 SLP439
T11501178=

Extra information for KBVO:More info

Metar Taf Metar & Taf Last 4 Metars F.Rules Stats Wind Profile Meteogram Temp Stats Airport Information Weather charts Add Link Nearby VenuesMetar ALERT Operation Metar Decoded Social comments

AIRNAV info for KBVO